Terminal Aerodrome Forecast
Issued by NWS

Home | Current Version | Previous Version | Text Only | Print | Product List | Glossary On
Versions: 1 2 3 4 5 6 7 8 9 10 11 12 13 14 15 16 17 18 19 20 21 22 23 24 25 26 27 28
963
FTUS41 KRLX 010216 AAA
TAFCKB
TAF AMD
KCKB 010216Z 0102/0124 VRB03KT 6SM -SHRA BR VCTS BKN050CB
      TEMPO 0103/0106 4SM SHRA BR BKN035
     FM010600 00000KT P6SM BKN090
     FM010900 00000KT P6SM OVC025
     FM011100 00000KT 6SM BR OVC015
     FM011200 00000KT 5SM BR OVC008
     FM011300 00000KT 6SM BR OVC010
     FM011600 35004KT P6SM BKN035
     FM011900 35006KT P6SM SCT040=

USA.gov is the U.S. government's official web portal to all federal, state and local government web resources and services.